Country
Station

 

Weather  for  Trenton, Mercer County Airport  -  United States    United States

  
32 °C (90 °F)
    
 
 

Current METAR for Trenton, Mercer County Airport is :

KTTN 171753Z 19008KT 10SM CLR 32/23 A3000 RMK AO2 SLP152 T03170228 10317 20244 58021

 

This is a report for Trenton, Mercer County Airport - United States.
 
The report was made 57 minutes ago, at 17:53 UTC .
The wind was blowing at a speed of 4.1 meters per second (9.2 miles per hour) from south (190°).
 
The temperature was 32 °C (90 °F), with a dew-point at 23 °C (73 °F).
The temperature felt like 37 °C (99 °F).
 
The atmospheric pressure was 1016 hPa (30.00 inHg).
The relative humidity was 59.1%.
 
The sky was clear.
 
The overall visibility was 16.1 kilometers (10.0 miles).
 

 
 
 
 

Country :   A   B   C   D   E   F   G   H   I   J   K   L   M   N   O   P   Q   R   S   T   U   V   W   Y   Z

 

Site Info  |  Disclaimer  |  Credits  |  Privacy
Contact us  |  Add to favorites
© 2013-2018 METARs - All rights reserved